createdAt,value
2023-08-12T09:04:57.876Z,49.70
2023-08-12T09:09:56.777Z,48.30
2023-08-12T09:14:54.559Z,49.20
2023-08-12T09:19:53.200Z,51.50
2023-08-12T09:22:21.674Z,50.90
2023-08-12T09:24:52.846Z,51.30
2023-08-12T09:27:21.330Z,52.50
2023-08-12T09:29:49.502Z,51.70
2023-08-12T09:32:22.409Z,51.90
2023-08-12T09:34:53.384Z,49.60
2023-08-12T09:37:23.394Z,50.30
2023-08-12T09:39:53.293Z,50.50
2023-08-12T09:42:21.617Z,49.20
2023-08-12T09:44:49.916Z,49.10
2023-08-12T09:47:18.214Z,47.20
2023-08-12T09:49:46.403Z,45.80
2023-08-12T09:52:16.143Z,43.80
2023-08-12T09:54:44.899Z,46.00
2023-08-12T09:57:15.934Z,46.00
2023-08-12T09:59:45.461Z,45.10
2023-08-12T10:02:19.633Z,47.00
2023-08-12T10:04:49.909Z,44.40
2023-08-12T10:07:20.390Z,46.60
2023-08-12T10:09:48.990Z,47.70
2023-08-12T10:12:19.673Z,46.40
2023-08-12T10:14:49.442Z,46.30
2023-08-12T10:17:21.470Z,46.80
2023-08-12T10:19:59.081Z,44.30
2023-08-12T10:22:29.247Z,47.20
2023-08-12T10:24:58.186Z,44.50
2023-08-12T10:27:27.377Z,43.90
2023-08-12T10:29:58.530Z,42.90
2023-08-12T10:32:26.853Z,44.40
2023-08-12T10:34:58.357Z,44.50
2023-08-12T10:37:29.404Z,45.60
2023-08-12T10:39:57.892Z,44.80
2023-08-12T10:42:43.378Z,44.60
2023-08-12T10:45:12.962Z,45.90
2023-08-12T10:47:43.008Z,44.70
2023-08-12T10:50:20.379Z,44.00
2023-08-12T10:52:52.849Z,43.40
2023-08-12T10:55:23.209Z,43.30
2023-08-12T10:57:54.348Z,42.20
2023-08-12T11:00:26.669Z,41.50
2023-08-12T11:02:55.997Z,40.70
2023-08-12T11:05:24.826Z,39.40
2023-08-12T11:08:02.426Z,39.30
2023-08-12T11:10:34.717Z,39.70
2023-08-12T11:13:04.331Z,41.50
2023-08-12T11:15:34.847Z,40.00
2023-08-12T11:18:05.913Z,41.80
2023-08-12T11:20:35.294Z,38.80
2023-08-12T11:25:36.506Z,38.80
2023-08-12T11:28:06.953Z,40.60
2023-08-12T11:30:35.527Z,37.00
2023-08-12T11:33:04.993Z,38.60
2023-08-12T11:35:33.262Z,36.60
2023-08-12T11:38:01.763Z,38.80
2023-08-12T11:40:31.371Z,37.60
2023-08-12T11:42:59.622Z,40.10
2023-08-12T11:45:29.624Z,39.90
2023-08-12T11:47:57.920Z,37.30
2023-08-12T11:50:28.506Z,39.00
2023-08-12T11:52:58.526Z,36.20
2023-08-12T11:55:27.817Z,34.90
2023-08-12T11:57:57.522Z,35.60
2023-08-12T12:00:28.346Z,36.00
2023-08-12T12:02:58.058Z,35.30
2023-08-12T12:05:29.167Z,33.60
2023-08-12T12:07:57.679Z,32.30
2023-08-12T12:10:33.417Z,34.10
2023-08-12T12:13:06.096Z,36.50
2023-08-12T12:15:40.036Z,35.90
2023-08-12T12:18:12.247Z,35.10
2023-08-12T12:20:45.048Z,37.10
2023-08-12T12:23:13.474Z,36.60
2023-08-12T12:25:43.884Z,40.20
2023-08-12T12:28:15.548Z,39.40
2023-08-12T12:30:43.866Z,41.20
2023-08-12T12:33:12.084Z,42.00
2023-08-12T12:35:51.494Z,46.00
2023-08-12T12:38:24.009Z,47.00
2023-08-12T13:48:03.802Z,99.90
2023-08-12T13:50:53.718Z,93.20
2023-08-12T13:53:42.300Z,73.90
2023-08-12T13:56:32.461Z,69.00
2023-08-12T13:59:21.287Z,67.10
2023-08-12T14:02:09.797Z,70.10
2023-08-12T14:04:58.319Z,69.80
2023-08-12T14:07:48.216Z,75.20
2023-08-12T14:10:36.675Z,74.40
2023-08-12T14:13:25.201Z,76.90
2023-08-12T14:16:13.777Z,68.60
2023-08-12T16:57:49.818Z,98.40
2023-08-12T17:00:20.013Z,97.80
2023-08-12T17:22:41.233Z,99.90
2023-08-12T17:25:10.172Z,96.90
2023-08-12T17:27:38.448Z,89.10
2023-08-12T17:30:07.986Z,81.00
2023-08-12T17:32:36.460Z,79.60
2023-08-12T17:35:06.768Z,84.90
2023-08-12T17:37:39.500Z,80.60
2023-08-12T17:40:11.672Z,72.00
2023-08-12T17:42:40.065Z,71.50
2023-08-12T17:45:09.065Z,75.40
2023-08-12T17:47:37.303Z,78.20
2023-08-12T17:50:09.412Z,76.60
2023-08-12T17:52:37.659Z,72.60
2023-08-12T17:55:06.555Z,77.80
2023-08-12T17:57:34.782Z,79.20
2023-08-12T18:00:03.678Z,80.40
2023-08-12T18:02:32.080Z,80.70
2023-08-12T18:05:00.524Z,81.40
2023-08-12T18:07:30.182Z,83.10
2023-08-12T18:09:58.503Z,84.10
2023-08-12T18:12:26.833Z,84.20
2023-08-12T18:14:55.052Z,83.20
2023-08-12T18:17:25.203Z,85.70
2023-08-12T18:19:53.618Z,86.90
2023-08-12T18:22:22.301Z,85.40
2023-08-12T18:24:51.945Z,87.10
2023-08-12T18:27:20.188Z,85.40
2023-08-12T18:29:48.517Z,87.30
2023-08-12T18:32:16.814Z,89.10
2023-08-12T18:34:45.169Z,90.50
2023-08-12T18:37:14.259Z,90.40
2023-08-12T18:39:42.450Z,91.10
2023-08-12T18:42:12.518Z,91.00
2023-08-12T18:44:41.007Z,91.80
2023-08-12T18:47:09.176Z,92.10
2023-08-12T18:49:37.430Z,92.70
2023-08-12T18:52:06.171Z,93.10
2023-08-12T18:54:34.391Z,93.20
2023-08-12T18:57:03.012Z,94.30
2023-08-12T18:59:32.647Z,95.20
2023-08-12T19:02:01.121Z,95.90
2023-08-12T19:04:29.424Z,96.00
2023-08-12T19:06:57.624Z,96.20
2023-08-12T19:09:26.295Z,96.50
2023-08-12T19:11:54.654Z,95.30
2023-08-12T19:14:22.938Z,94.90
2023-08-12T19:16:52.786Z,95.80
2023-08-12T19:19:20.973Z,95.10
2023-08-12T19:21:49.805Z,94.40
2023-08-12T19:24:18.022Z,94.70
2023-08-12T19:26:46.516Z,94.30
2023-08-12T19:29:14.774Z,94.10
2023-08-12T19:31:43.134Z,95.20
2023-08-12T19:34:12.872Z,95.30
2023-08-12T19:36:41.098Z,96.30
2023-08-12T19:39:08.462Z,96.90
2023-08-12T19:41:37.000Z,97.40
2023-08-12T19:44:06.209Z,97.70
2023-08-12T19:46:34.629Z,97.40
2023-08-12T19:49:03.911Z,97.90
2023-08-12T19:51:33.514Z,98.80
2023-08-12T19:54:01.758Z,99.90
2023-08-12T19:56:30.059Z,99.90
2023-08-12T19:58:58.725Z,99.90
2023-08-12T20:01:27.056Z,98.90
2023-08-12T20:03:55.464Z,99.10
2023-08-12T20:06:23.701Z,99.90
2023-08-12T20:08:53.401Z,99.90
2023-08-12T20:13:50.174Z,99.90
2023-08-12T20:18:49.991Z,99.90
2023-08-12T20:21:18.182Z,99.10
2023-08-12T20:23:46.391Z,99.90
2023-08-12T20:26:16.014Z,99.90
2023-08-12T20:28:44.290Z,99.90
2023-08-12T20:33:41.150Z,99.90
2023-08-12T20:36:09.472Z,99.90
2023-08-12T20:38:37.824Z,99.90
2023-08-12T20:43:35.881Z,99.90
2023-08-12T20:46:06.278Z,99.90
2023-08-12T20:48:34.608Z,99.90
2023-08-12T20:51:03.211Z,99.90
2023-08-12T20:53:32.411Z,99.90
2023-08-12T20:58:30.983Z,99.90
2023-08-12T21:03:29.455Z,99.90
2023-08-12T21:05:57.974Z,99.90
2023-08-12T21:08:27.375Z,99.90
2023-08-12T21:30:48.585Z,99.90
2023-08-12T21:38:16.254Z,99.90
2023-08-12T21:40:44.546Z,99.90
2023-08-12T22:00:39.902Z,99.90
2023-08-12T22:28:05.228Z,99.90
2023-08-12T22:33:01.947Z,99.90
2023-08-12T22:40:27.334Z,99.90
2023-08-12T22:50:23.273Z,99.90
2023-08-12T22:55:20.157Z,99.90
2023-08-12T23:05:17.742Z,99.90
2023-08-12T23:07:46.031Z,99.90
2023-08-12T23:10:14.439Z,99.90
2023-08-12T23:15:11.711Z,99.90
2023-08-12T23:17:40.054Z,99.90
2023-08-12T23:22:39.437Z,99.90
2023-08-12T23:27:36.909Z,99.90
2023-08-12T23:35:02.676Z,99.90
2023-08-12T23:37:32.335Z,99.90
2023-08-12T23:40:00.741Z,99.90
2023-08-12T23:42:30.310Z,99.90
2023-08-12T23:44:58.517Z,99.90
2023-08-12T23:52:26.102Z,99.90
2023-08-12T23:54:55.698Z,99.90
2023-08-12T23:57:23.895Z,99.90
2023-08-12T23:59:52.169Z,99.90
